createdAt,value
2023-05-19T00:04:43.512Z,102220.65
2023-05-19T00:09:52.079Z,102216.71
2023-05-19T00:15:01.294Z,102211.84
2023-05-19T00:20:12.184Z,102206.52
2023-05-19T00:25:19.426Z,102204.65
2023-05-19T00:30:27.021Z,102205.52
2023-05-19T00:35:34.519Z,102199.30
2023-05-19T00:40:41.785Z,102193.05
2023-05-19T00:45:49.568Z,102192.36
2023-05-19T00:51:02.498Z,102192.33
2023-05-19T00:56:10.070Z,102197.20
2023-05-19T01:01:17.525Z,102198.14
2023-05-19T01:06:25.673Z,102202.11
2023-05-19T01:11:32.827Z,102200.84
2023-05-19T01:16:45.202Z,102200.06
2023-05-19T01:22:13.937Z,102195.69
2023-05-19T01:27:57.812Z,102193.77
2023-05-19T01:33:08.408Z,102192.61
2023-05-19T01:38:18.458Z,102192.86
2023-05-19T01:43:27.715Z,102192.97
2023-05-19T01:48:35.491Z,102189.93
2023-05-19T01:53:42.738Z,102191.67
2023-05-19T01:58:54.308Z,102191.08
2023-05-19T02:04:21.720Z,102190.02
2023-05-19T02:09:38.993Z,102193.44
2023-05-19T02:14:51.256Z,102191.66
2023-05-19T02:19:58.358Z,102188.61
2023-05-19T02:25:05.874Z,102188.77
2023-05-19T02:30:14.084Z,102186.52
2023-05-19T02:35:19.807Z,102185.38
2023-05-19T02:40:27.151Z,102187.00
2023-05-19T02:45:35.480Z,102182.84
2023-05-19T02:50:43.914Z,102172.81
2023-05-19T02:55:51.582Z,102173.83
2023-05-19T03:00:59.361Z,102170.88
2023-05-19T03:06:08.845Z,102173.04
2023-05-19T03:11:16.686Z,102182.83
2023-05-19T03:16:24.633Z,102189.10
2023-05-19T03:21:30.766Z,102183.13
2023-05-19T03:26:37.894Z,102179.42
2023-05-19T03:31:45.185Z,102178.63
2023-05-19T03:36:53.398Z,102175.85
2023-05-19T03:42:01.778Z,102173.04
2023-05-19T03:47:11.669Z,102174.33
2023-05-19T03:52:49.021Z,102173.23
2023-05-19T03:58:10.790Z,102177.00
2023-05-19T04:03:18.075Z,102183.96
2023-05-19T04:08:25.220Z,102186.63
2023-05-19T04:13:34.178Z,102192.21
2023-05-19T04:18:41.378Z,102192.65
2023-05-19T04:23:48.575Z,102193.40
2023-05-19T04:28:56.711Z,102195.42
2023-05-19T04:34:04.361Z,102201.45
2023-05-19T04:39:12.533Z,102201.98
2023-05-19T04:44:21.902Z,102205.84
2023-05-19T04:49:30.230Z,102203.82
2023-05-19T04:54:38.943Z,102209.21
2023-05-19T04:59:47.370Z,102206.63
2023-05-19T05:04:56.804Z,102202.98
2023-05-19T05:10:07.939Z,102207.20
2023-05-19T05:15:18.629Z,102205.81
2023-05-19T05:20:28.156Z,102204.75
2023-05-19T05:25:37.546Z,102207.64
2023-05-19T05:30:45.123Z,102203.94
2023-05-19T05:35:56.613Z,102207.42
2023-05-19T05:41:05.274Z,102207.74
2023-05-19T05:46:15.379Z,102208.92
2023-05-19T05:51:24.908Z,102211.23
2023-05-19T05:56:33.940Z,102212.17
2023-05-19T06:01:42.236Z,102212.36
2023-05-19T06:06:49.513Z,102208.67
2023-05-19T06:12:01.301Z,102215.95
2023-05-19T06:17:11.110Z,102223.72
2023-05-19T06:22:18.293Z,102226.14
2023-05-19T06:27:25.468Z,102224.15
2023-05-19T06:32:33.156Z,102224.25
2023-05-19T06:37:40.688Z,102220.21
2023-05-19T06:42:48.236Z,102219.71
2023-05-19T06:48:09.570Z,102219.75
2023-05-19T06:53:18.430Z,102218.98
2023-05-19T06:58:26.956Z,102222.25
2023-05-19T07:03:34.615Z,102232.46
2023-05-19T07:08:42.127Z,102239.98
2023-05-19T07:13:50.165Z,102238.59
2023-05-19T07:19:02.896Z,102234.55
2023-05-19T07:24:10.747Z,102236.95
2023-05-19T07:29:18.007Z,102243.17
2023-05-19T07:34:25.212Z,102240.48
2023-05-19T07:39:32.611Z,102233.70
2023-05-19T07:44:39.785Z,102227.41
2023-05-19T07:49:49.687Z,102225.98
2023-05-19T07:54:58.195Z,102233.58
2023-05-19T08:00:07.875Z,102229.13
2023-05-19T08:05:18.881Z,102219.27
2023-05-19T08:10:26.218Z,102223.42
2023-05-19T08:15:36.723Z,102225.37
2023-05-19T08:20:43.964Z,102222.45
2023-05-19T08:25:51.224Z,102221.22
2023-05-19T08:30:58.504Z,102218.41
2023-05-19T08:36:06.749Z,102220.08
2023-05-19T08:41:14.012Z,102216.17
2023-05-19T08:46:23.096Z,102213.08
2023-05-19T08:51:35.323Z,102211.84
2023-05-19T08:56:44.357Z,102210.95
2023-05-19T09:01:51.992Z,102210.92
2023-05-19T09:07:02.966Z,102214.44
2023-05-19T09:12:10.393Z,102214.45
2023-05-19T09:17:19.265Z,102205.77
2023-05-19T09:22:26.783Z,102206.29
2023-05-19T09:27:35.491Z,102201.94
2023-05-19T09:32:43.793Z,102197.95
2023-05-19T09:37:51.261Z,102200.12
2023-05-19T09:42:58.848Z,102196.65
2023-05-19T09:48:09.844Z,102193.30
2023-05-19T09:53:20.408Z,102195.91
2023-05-19T09:58:28.122Z,102200.23
2023-05-19T10:03:34.989Z,102204.16
2023-05-19T10:08:43.702Z,102208.91
2023-05-19T10:13:54.022Z,102209.27
2023-05-19T10:19:03.698Z,102204.23
2023-05-19T10:24:12.189Z,102200.03
2023-05-19T10:29:24.271Z,102201.09
2023-05-19T10:34:54.960Z,102200.45
2023-05-19T10:40:08.906Z,102199.54
2023-05-19T10:45:22.727Z,102206.19
2023-05-19T10:50:36.702Z,102207.84
2023-05-19T10:55:53.631Z,102209.83
2023-05-19T11:01:08.423Z,102215.74
2023-05-19T11:06:28.251Z,102215.98
2023-05-19T11:11:49.002Z,102219.52
2023-05-19T11:17:00.704Z,102223.60
2023-05-19T11:22:15.144Z,102223.37
2023-05-19T11:27:28.510Z,102217.55
2023-05-19T11:32:39.423Z,102219.74
2023-05-19T11:37:47.807Z,102222.70
2023-05-19T11:42:54.982Z,102221.87
2023-05-19T11:48:03.548Z,102217.23
2023-05-19T11:53:13.178Z,102214.02
2023-05-19T11:58:26.156Z,102206.55
2023-05-19T12:03:33.432Z,102197.25
2023-05-19T12:08:41.018Z,102197.06
2023-05-19T12:13:48.692Z,102204.79
2023-05-19T12:18:56.715Z,102204.91
2023-05-19T12:24:04.470Z,102201.33
2023-05-19T12:29:11.652Z,102202.06
2023-05-19T12:34:19.089Z,102203.56
2023-05-19T12:39:27.434Z,102198.54
2023-05-19T12:44:40.733Z,102199.89
2023-05-19T12:50:04.942Z,102200.75
2023-05-19T12:55:13.138Z,102200.64
2023-05-19T13:00:22.979Z,102193.25
2023-05-19T13:05:31.393Z,102187.16
2023-05-19T13:10:40.559Z,102182.15
2023-05-19T13:15:49.455Z,102181.92
2023-05-19T13:20:56.813Z,102179.32
2023-05-19T13:26:05.180Z,102177.54
2023-05-19T13:31:12.987Z,102172.40
2023-05-19T13:36:20.121Z,102161.30
2023-05-19T13:41:29.495Z,102156.55
2023-05-19T13:46:45.301Z,102157.77
2023-05-19T13:51:57.094Z,102157.44
2023-05-19T13:57:04.183Z,102158.39
2023-05-19T14:02:12.926Z,102158.77
2023-05-19T14:07:20.417Z,102157.49
2023-05-19T14:12:38.203Z,102153.64
2023-05-19T14:17:54.666Z,102155.70
2023-05-19T14:23:02.105Z,102150.59
2023-05-19T14:28:11.169Z,102151.39
2023-05-19T14:33:19.479Z,102152.38
2023-05-19T14:38:27.704Z,102149.94
2023-05-19T14:43:36.329Z,102154.77
2023-05-19T14:48:43.306Z,102160.56
2023-05-19T14:53:50.527Z,102157.80
2023-05-19T14:58:57.854Z,102150.18
2023-05-19T15:04:05.056Z,102153.66
2023-05-19T15:09:14.736Z,102160.60
2023-05-19T15:14:22.279Z,102170.02
2023-05-19T15:19:29.310Z,102177.30
2023-05-19T15:24:36.666Z,102180.41
2023-05-19T15:29:45.088Z,102177.31
2023-05-19T15:34:52.272Z,102178.19
2023-05-19T15:39:59.404Z,102177.80
2023-05-19T15:45:09.197Z,102167.45
2023-05-19T15:50:16.999Z,102155.52
2023-05-19T15:55:22.665Z,102156.16
2023-05-19T16:00:29.751Z,102151.50
2023-05-19T16:05:37.031Z,102149.77
2023-05-19T16:10:44.039Z,102149.98
2023-05-19T16:15:51.158Z,102149.27
2023-05-19T16:20:58.555Z,102143.79
2023-05-19T16:26:05.960Z,102144.60
2023-05-19T16:31:13.163Z,102141.52
2023-05-19T16:36:22.996Z,102137.85
2023-05-19T16:41:35.579Z,102136.88
2023-05-19T16:46:42.780Z,102134.01
2023-05-19T16:51:50.315Z,102129.99
2023-05-19T16:56:57.673Z,102132.10
2023-05-19T17:02:04.894Z,102130.14
2023-05-19T17:07:15.994Z,102129.66
2023-05-19T17:12:26.560Z,102124.69
2023-05-19T17:17:33.832Z,102117.31
2023-05-19T17:22:41.242Z,102116.48
2023-05-19T17:27:48.423Z,102120.06
2023-05-19T17:32:59.863Z,102126.15
2023-05-19T17:38:07.212Z,102128.91
2023-05-19T17:43:14.412Z,102124.36
2023-05-19T17:48:21.598Z,102120.50
2023-05-19T17:53:30.065Z,102129.55
2023-05-19T17:58:38.570Z,102125.42
2023-05-19T18:03:49.800Z,102127.76
2023-05-19T18:08:59.469Z,102130.64
2023-05-19T18:14:06.880Z,102128.91
2023-05-19T18:19:14.163Z,102128.25
2023-05-19T18:24:24.989Z,102129.34
2023-05-19T18:29:32.248Z,102129.29
2023-05-19T18:34:39.538Z,102134.65
2023-05-19T18:39:46.701Z,102139.91
2023-05-19T18:44:54.117Z,102148.14
2023-05-19T18:50:01.968Z,102150.91
2023-05-19T18:55:08.847Z,102152.54
2023-05-19T19:00:19.079Z,102150.69
2023-05-19T19:05:26.907Z,102147.70
2023-05-19T19:10:39.207Z,102145.43
2023-05-19T19:15:46.885Z,102150.02
2023-05-19T19:20:55.313Z,102155.45
2023-05-19T19:26:02.692Z,102154.30
2023-05-19T19:31:12.123Z,102153.71
2023-05-19T19:36:19.288Z,102153.59
2023-05-19T19:41:26.868Z,102146.29
2023-05-19T19:46:34.023Z,102142.80
2023-05-19T19:51:41.298Z,102140.15
2023-05-19T19:56:48.712Z,102138.25
2023-05-19T20:01:56.033Z,102149.04
2023-05-19T20:07:03.352Z,102156.02
2023-05-19T20:12:11.301Z,102154.27
2023-05-19T20:17:18.716Z,102152.96
2023-05-19T20:22:26.180Z,102149.91
2023-05-19T20:27:37.070Z,102154.91
2023-05-19T20:32:47.814Z,102156.27
2023-05-19T20:38:03.822Z,102155.17
2023-05-19T20:43:11.508Z,102154.63
2023-05-19T20:48:18.832Z,102153.92
2023-05-19T20:53:30.824Z,102153.48
2023-05-19T20:58:42.024Z,102152.84
2023-05-19T21:03:50.657Z,102156.29
2023-05-19T21:08:58.236Z,102153.38
2023-05-19T21:14:06.158Z,102154.14
2023-05-19T21:19:16.527Z,102151.36
2023-05-19T21:24:23.691Z,102150.06
2023-05-19T21:29:30.811Z,102151.09
2023-05-19T21:34:39.099Z,102151.66
2023-05-19T21:39:46.363Z,102154.43
2023-05-19T21:44:53.533Z,102153.14
2023-05-19T21:50:00.653Z,102156.81
2023-05-19T21:55:10.566Z,102159.14
2023-05-19T22:00:18.625Z,102164.02
2023-05-19T22:05:25.882Z,102159.80
2023-05-19T22:10:33.252Z,102163.80
2023-05-19T22:15:42.022Z,102163.33
2023-05-19T22:20:49.275Z,102162.14
2023-05-19T22:25:56.384Z,102164.13
2023-05-19T22:31:03.539Z,102163.06
2023-05-19T22:36:11.387Z,102164.48
2023-05-19T22:41:18.611Z,102168.39
2023-05-19T22:46:45.345Z,102168.60
2023-05-19T22:51:52.889Z,102163.45
2023-05-19T22:57:00.229Z,102155.96
2023-05-19T23:02:07.935Z,102155.85
2023-05-19T23:07:15.093Z,102150.66
2023-05-19T23:12:22.212Z,102154.39
2023-05-19T23:17:29.511Z,102154.44
2023-05-19T23:22:36.687Z,102152.00
2023-05-19T23:27:43.869Z,102152.05
2023-05-19T23:32:50.961Z,102153.70
2023-05-19T23:37:58.155Z,102153.91
2023-05-19T23:43:05.334Z,102159.34
2023-05-19T23:48:12.580Z,102160.74
2023-05-19T23:53:20.042Z,102167.89
2023-05-19T23:58:27.420Z,102165.30
